Parker, ID (83438)

10:34 AM MDT on July 28, 2016 (GMT -0600)
Fremont County Courthouse | | Change Station

Elev 4972 ft 43.97 °N, 111.68 °W | Updated 59 seconds ago

Clear
Clear
77.5 °F
Feels Like 78 °F
N
3.0
Wind Variable Wind from ENE
Gusts 4.0 mph

Today
High -- | Low -- °F
--% Chance of Precip.
Yesterday
High -- | Low -- °F
Precip. -- in
Pressure 30.05 in
Visibility 10.0 miles
Clouds Clear
Heat Index 78 °F
Dew Point 45 °F
Humidity 34%
Rainfall 0.00 in
Snow Depth Not available.
6:11 AM 8:54 PM
Waning Crescent, 31% visible
METAR KRXE 281553Z AUTO 06007KT 10SM CLR 22/07 A3020 RMK AO2 SLP176 T02220072
Pressure 30.05 in
Visibility 10.0 miles
Clouds Clear
Heat Index 78 °F
Dew Point 45 °F
Humidity 34%
Rainfall 0.00 in
Snow Depth Not available.
6:11 AM 8:54 PM
Waning Crescent, 31% visible
METAR KRXE 281553Z AUTO 06007KT 10SM CLR 22/07 A3020 RMK AO2 SLP176 T02220072

10-Day Weather Forecast

Almanac

Astronomy

Jul. 28, 2016 Rise Set
Actual Time
Civil Twilight
Nautical Twilight
Astronomical Twilight
Moon
Length of Visible Light
Length of Day
Tomorrow will be .
, % of the Moon is Illuminated

Today's Extremes

State Highs State Lows

Community

WunderPhotos

Upload Photos

1,928,147 photos uploaded!

WunderBlog® & News

Nearby

Air Quality

  Air Quality AQ Index Pollutant
Not available.

Snow Depth

Station Depth Elevation

Earthquake Activity

City Distance Mag. Time & Date
Minimum magnitude displayed is 2.5.

Coastal Water Temperatures

Place Temperature

Stations

Nearby Weather Stations

Station Location Temp. Windchill Dew Point Humidity Wind Precip. Elev Updated Type
                   

Watches & Warnings

There are currently no watches in effect.